ADDS METAR Data INFO
IDs: Format: Raw Decoded Include TAF

Data at: 0316 UTC 16 Dec 2017

KDVN 160252Z AUTO 21011KT 10SM OVC095 02/M06 A2989 RMK AO2 SLP127 T00221061 58004
KDVN 160152Z AUTO 20010KT 10SM BKN110 02/M06 A2991 RMK AO2 SLP132 T00221061
KDVN 160052Z AUTO 20011KT 10SM CLR 02/M06 A2991 RMK AO2 SLP132 T00171061
KDVN 152352Z AUTO 20009KT 10SM CLR 02/M06 A2990 RMK AO2 SLP132 T00221056 10028 20000 58007
KDVN 152252Z AUTO 21008KT 10SM OVC050 02/M05 A2991 RMK AO2 SLP134 T00221050
KDVN 152152Z AUTO 23010KT 10SM OVC060 03/M05 A2992 RMK AO2 SLP136 T00281050
KDVN 152052Z AUTO 25013KT 10SM OVC065 03/M05 A2993 RMK AO2 SLP138 T00281050 56015
KDVN 151952Z AUTO 25015G22KT 10SM OVC060 02/M05 A2994 RMK AO2 SLP141 T00171050
KDVN 151852Z AUTO 24014G22KT 10SM OVC060 01/M06 A2995 RMK AO2 SLP146 T00111061
KDVN 151752Z AUTO 24013KT 10SM BKN040 OVC060 00/M06 A2997 RMK AO2 SLP155 60000 T00001056 10000 21056 58015
KDVN 151652Z AUTO 24013KT 10SM OVC038 M01/M06 A3001 RMK AO2 SNB34E43 SLP168 P0000 T10061061
KDVN 151552Z AUTO 25018KT 10SM FEW040 BKN065 M01/M06 A3001 RMK AO2 SLP169 T10061061
KDVN 151452Z AUTO 25012KT 10SM OVC036 M03/M07 A3002 RMK AO2 SLP171 T10331072 50001
KDVN 151352Z AUTO 25010KT 10SM OVC042 M04/M08 A3002 RMK AO2 SLP173 T10391078
KDVN 151252Z AUTO 27008KT 10SM OVC040 M04/M08 A3002 RMK AO2 SLP173 T10441078
KDVN 151152Z AUTO 28008KT 10SM BKN044 M05/M08 A3001 RMK AO2 SLP170 T10501083 11028 21056 55001
KDVN 151052Z AUTO 29013KT 10SM CLR M04/M08 A3001 RMK AO2 SLP168 T10391083
KDVN 151034Z AUTO 29013G21KT 10SM FEW027 M04/M08 A3001 RMK AO2 T10391078
KDVN 150952Z AUTO 27010KT 10SM SCT021 BKN028 OVC050 M03/M07 A3001 RMK AO2 SLP168 T10331072
KDVN 150852Z AUTO 27011KT 10SM OVC025 M03/M07 A3001 RMK AO2 SLP170 T10281072 56012
KDVN 150843Z AUTO 27010KT 10SM OVC028 M03/M07 A3002 RMK AO2 T10331072
KDVN 150752Z AUTO 25010KT 10SM OVC034 M03/M08 A3002 RMK AO2 SLP173 T10331078
KDVN 150652Z AUTO 24009KT 10SM OVC044 M03/M08 A3003 RMK AO2 SLP176 T10331083
KDVN 150615Z AUTO 23010KT 10SM SCT026 OVC043 M04/M08 A3004 RMK AO2 T10391083
KDVN 150552Z AUTO 23010KT 10SM OVC027 M04/M09 A3005 RMK AO2 SLP182 T10391089 11033 21039 410221072 58012
KDVN 150452Z AUTO 23007KT 10SM OVC027 M04/M09 A3007 RMK AO2 SLP188 T10391089
KDVN 150352Z AUTO 23007KT 10SM OVC026 M04/M09 A3008 RMK AO2 SLP192 T10391089
KDVN 150252Z AUTO 22007KT 10SM BKN025 OVC090 M04/M09 A3009 RMK AO2 SLP195 T10391094 58006
KDVN 150152Z AUTO 25010KT 10SM OVC024 M04/M09 A3011 RMK AO2 SLP202 T10391089
KDVN 150052Z AUTO 27008KT 10SM OVC025 M03/M09 A3011 RMK AO2 SLP203 T10331094
KDVN 142352Z AUTO 27008KT 10SM OVC024 M04/M09 A3010 RMK AO2 SLP201 T10391089 11022 21039 53005
KDVN 142252Z AUTO 28006KT 10SM OVC026 M03/M09 A3010 RMK AO2 SLP200 T10331089
KDVN 142152Z AUTO 26008KT 10SM OVC026 M03/M09 A3009 RMK AO2 SLP195 T10281089
KDVN 142052Z AUTO 27006KT 10SM OVC028 M03/M09 A3009 RMK AO2 SLP195 T10331089 55003
KDVN 141952Z AUTO 21006KT 10SM OVC026 M03/M09 A3008 RMK AO2 SLP193 T10281094
KDVN 141852Z AUTO 00000KT 10SM OVC025 M03/M09 A3008 RMK AO2 SLP193 T10331094
KDVN 141841Z AUTO 00000KT 10SM BKN025 M03/M09 A3008 RMK AO2 T10281094
KDVN 141752Z AUTO VRB03KT 10SM CLR M04/M09 A3010 RMK AO2 SLP198 T10391094 11033 21067 58009
KDVN 141652Z AUTO 00000KT 10SM CLR M04/M09 A3012 RMK AO2 SLP205 T10391094
KDVN 141639Z AUTO 00000KT 10SM SCT020 M05/M09 A3012 RMK AO2 T10501094
KDVN 141552Z AUTO 05004KT 10SM BKN019 M05/M09 A3012 RMK AO2 SLP207 T10501094
KDVN 141543Z AUTO 06004KT 10SM SCT019 M05/M09 A3012 RMK AO2 T10501094